Time;durP1;ratioP1;P1;durP2;ratioP2;P2;SDS_P1;SDS_P2;PMS_P1;PMS_P2;Temp;Humidity;BMP_temperature;BMP_pressure;BME280_temperature;BME280_humidity;BME280_pressure;Samples;Min_cycle;Max_cycle;Signal;HPM_P1;HPM_P2
2022/05/21 00:00:34;;;;;;;10.27;2.08;;;12.20;99.90;;;;;;6314081;22;20007;-94
2022/05/21 00:03:00;;;;;;;16.88;2.83;;;12.20;99.90;;;;;;6313849;22;19995;-94
2022/05/21 00:05:29;;;;;;;14.75;2.45;;;12.20;99.90;;;;;;6314455;22;20022;-94
2022/05/21 00:07:55;;;;;;;13.70;2.40;;;12.30;99.90;;;;;;6314421;22;19998;-95
2022/05/21 00:10:23;;;;;;;16.23;2.50;;;12.20;99.90;;;;;;6313943;22;20097;-93
2022/05/21 00:12:49;;;;;;;16.13;2.38;;;12.30;99.90;;;;;;6314262;22;20015;-93
2022/05/21 00:15:18;;;;;;;12.88;2.17;;;12.20;99.90;;;;;;6313559;22;19999;-93
2022/05/21 00:17:44;;;;;;;11.00;2.15;;;12.30;99.90;;;;;;6313592;22;20009;-93
2022/05/21 00:22:57;;;;;;;13.48;2.50;;;12.20;99.90;;;;;;6347884;22;20006;-95
2022/05/21 00:25:23;;;;;;;15.45;2.90;;;12.20;99.90;;;;;;6326780;22;20006;-93
2022/05/21 00:27:50;;;;;;;11.18;2.30;;;12.20;99.90;;;;;;6322024;22;20014;-93
2022/05/21 00:30:16;;;;;;;26.60;3.28;;;12.10;99.90;;;;;;6322729;22;20026;-94
2022/05/21 00:32:41;;;;;;;13.98;2.50;;;12.10;99.90;;;;;;6321392;22;20013;-93
2022/05/21 00:35:08;;;;;;;13.57;2.25;;;12.10;99.90;;;;;;6316290;22;19999;-94
2022/05/21 00:37:34;;;;;;;18.77;2.17;;;12.10;99.90;;;;;;6313435;22;20460;-94
2022/05/21 00:39:59;;;;;;;17.63;3.20;;;12.10;99.90;;;;;;6316971;22;20058;-93
2022/05/21 00:42:25;;;;;;;14.35;2.78;;;12.10;99.90;;;;;;6325065;22;20002;-93
2022/05/21 00:44:51;;;;;;;11.25;2.53;;;12.00;99.90;;;;;;6321864;22;20018;-94
2022/05/21 00:47:17;;;;;;;13.57;2.03;;;12.10;99.90;;;;;;6322575;22;20006;-93
2022/05/21 00:49:44;;;;;;;17.27;2.42;;;12.10;99.90;;;;;;6319702;22;20010;-93
2022/05/21 00:52:18;;;;;;;14.40;2.65;;;12.10;99.90;;;;;;6316624;22;20006;-94
2022/05/21 00:54:56;;;;;;;11.85;2.20;;;12.10;99.90;;;;;;6315812;22;19999;-93
2022/05/21 00:57:37;;;;;;;16.95;2.42;;;12.00;99.90;;;;;;6314222;22;20010;-92
2022/05/21 01:00:21;;;;;;;11.77;2.42;;;12.00;99.90;;;;;;6313415;22;20007;-94
2022/05/21 01:02:53;;;;;;;10.35;2.00;;;11.90;99.90;;;;;;6312974;22;20089;-93
2022/05/21 01:05:22;;;;;;;9.40;1.92;;;11.90;99.90;;;;;;6312722;22;20090;-93
2022/05/21 01:07:52;;;;;;;16.15;2.60;;;11.90;99.90;;;;;;6312684;22;20400;-92
2022/05/21 01:10:21;;;;;;;18.17;2.83;;;11.90;99.90;;;;;;6311877;22;20010;-94
2022/05/21 01:12:53;;;;;;;10.00;2.63;;;11.90;99.90;;;;;;6311942;22;20025;-93
2022/05/21 01:15:27;;;;;;;13.40;2.50;;;11.90;99.90;;;;;;6312017;22;20338;-93
2022/05/21 01:17:53;;;;;;;16.77;2.42;;;11.90;99.90;;;;;;6312104;22;20006;-93
2022/05/21 01:20:21;;;;;;;17.85;2.50;;;11.90;99.90;;;;;;6311774;22;20085;-93
2022/05/21 01:22:50;;;;;;;16.83;2.72;;;11.90;99.90;;;;;;6311848;22;20078;-93
2022/05/21 01:25:19;;;;;;;17.20;2.42;;;11.90;99.90;;;;;;6311968;22;20003;-93
2022/05/21 01:27:47;;;;;;;15.95;3.65;;;11.90;99.90;;;;;;6312017;22;20120;-92
2022/05/21 01:30:18;;;;;;;14.60;2.25;;;11.90;99.90;;;;;;6311919;22;20022;-93
2022/05/21 01:32:46;;;;;;;14.23;2.58;;;11.90;99.90;;;;;;6312136;22;20010;-93
2022/05/21 01:35:12;;;;;;;15.10;2.15;;;11.90;99.90;;;;;;6311665;22;20006;-93
2022/05/21 01:37:39;;;;;;;17.67;2.42;;;11.90;99.90;;;;;;6311340;22;19999;-93
2022/05/21 01:40:07;;;;;;;14.32;2.15;;;11.90;99.90;;;;;;6311796;22;20013;-93
2022/05/21 01:42:34;;;;;;;19.58;3.22;;;11.90;99.90;;;;;;6312269;22;20002;-93
2022/05/21 01:45:00;;;;;;;14.20;2.53;;;11.80;99.90;;;;;;6311648;22;20085;-93
2022/05/21 01:47:26;;;;;;;18.73;3.10;;;11.80;99.90;;;;;;6311853;22;20006;-93
2022/05/21 01:49:52;;;;;;;21.70;3.25;;;11.80;99.90;;;;;;6311336;22;20011;-93
2022/05/21 01:52:17;;;;;;;16.70;2.10;;;11.80;99.90;;;;;;6311600;22;20006;-93
2022/05/21 01:54:43;;;;;;;12.55;2.72;;;11.70;99.90;;;;;;6311837;22;19999;-93
2022/05/21 01:57:10;;;;;;;15.18;3.08;;;11.70;99.90;;;;;;6311715;22;20450;-93
2022/05/21 01:59:36;;;;;;;14.57;2.80;;;11.70;99.90;;;;;;6311655;22;20453;-94
2022/05/21 02:02:03;;;;;;;18.30;2.58;;;11.70;99.90;;;;;;6311980;22;20002;-93
2022/05/21 02:04:29;;;;;;;14.30;3.15;;;11.60;99.90;;;;;;6313548;22;19999;-93
2022/05/21 02:06:55;;;;;;;16.70;2.33;;;11.60;99.90;;;;;;6313790;22;20068;-93
2022/05/21 02:09:21;;;;;;;10.55;2.85;;;11.60;99.90;;;;;;6313735;22;20026;-93
2022/05/21 02:11:47;;;;;;;10.50;2.92;;;11.60;99.90;;;;;;6313479;22;20010;-93
2022/05/21 02:14:13;;;;;;;13.35;2.45;;;11.60;99.90;;;;;;6313330;22;20052;-93
2022/05/21 02:16:39;;;;;;;13.30;2.40;;;11.60;99.90;;;;;;6314028;22;20003;-94
2022/05/21 02:19:06;;;;;;;16.90;2.22;;;11.60;99.90;;;;;;6313739;22;20405;-93
2022/05/21 02:21:34;;;;;;;12.02;2.30;;;11.60;99.90;;;;;;6313370;22;20006;-94
2022/05/21 02:24:00;;;;;;;10.05;2.70;;;11.60;99.90;;;;;;6313118;22;20060;-93
2022/05/21 02:26:26;;;;;;;9.77;2.00;;;11.50;99.90;;;;;;6313731;22;19999;-92
2022/05/21 02:28:52;;;;;;;12.27;2.60;;;11.50;99.90;;;;;;6312842;22;20049;-94
2022/05/21 02:31:17;;;;;;;14.15;2.22;;;11.50;99.90;;;;;;6313465;22;20015;-92
2022/05/21 02:33:43;;;;;;;10.45;2.47;;;11.50;99.90;;;;;;6313136;22;20013;-94
2022/05/21 02:36:10;;;;;;;12.48;2.50;;;11.50;99.90;;;;;;6313879;22;20433;-92
2022/05/21 02:41:20;;;;;;;10.57;2.20;;;11.40;99.90;;;;;;6343508;22;20025;-94
2022/05/21 02:43:47;;;;;;;9.80;1.90;;;11.40;99.90;;;;;;6315255;22;20089;-93
2022/05/21 02:46:14;;;;;;;10.55;1.95;;;11.40;99.90;;;;;;6313297;22;20032;-92
2022/05/21 02:48:40;;;;;;;8.25;1.45;;;11.40;99.90;;;;;;6313846;22;20011;-93
2022/05/21 02:51:08;;;;;;;15.43;2.63;;;11.40;99.90;;;;;;6313373;22;20102;-92
2022/05/21 02:53:34;;;;;;;15.68;1.70;;;11.40;99.90;;;;;;6313164;22;19999;-94
2022/05/21 02:56:04;;;;;;;11.02;1.67;;;11.40;99.90;;;;;;6313132;22;20046;-92
2022/05/21 02:58:31;;;;;;;9.60;2.00;;;11.40;99.90;;;;;;6314389;22;20436;-94
2022/05/21 03:00:57;;;;;;;11.30;1.98;;;11.40;99.90;;;;;;6313182;22;20014;-93
2022/05/21 03:03:22;;;;;;;11.52;2.17;;;11.40;99.90;;;;;;6313401;22;20430;-92
2022/05/21 03:05:48;;;;;;;9.10;2.42;;;11.30;99.90;;;;;;6313451;22;20013;-93
2022/05/21 03:10:58;;;;;;;16.27;2.15;;;11.30;99.90;;;;;;6340816;22;20364;-95
2022/05/21 03:13:24;;;;;;;19.40;2.35;;;11.30;99.90;;;;;;6315985;22;20063;-93
2022/05/21 03:15:50;;;;;;;12.10;2.40;;;11.30;99.90;;;;;;6329724;22;20033;-93
2022/05/21 03:18:17;;;;;;;10.23;2.10;;;11.30;99.90;;;;;;6321251;22;20003;-93
2022/05/21 03:20:42;;;;;;;9.18;1.52;;;11.30;99.90;;;;;;6312970;22;20081;-93
2022/05/21 03:23:09;;;;;;;10.45;2.15;;;11.30;99.90;;;;;;6313452;22;20033;-92
2022/05/21 03:25:35;;;;;;;15.98;2.67;;;11.30;99.90;;;;;;6312735;22;20010;-92
2022/05/21 03:28:01;;;;;;;11.32;1.67;;;11.30;99.90;;;;;;6313154;22;20438;-91
2022/05/21 03:30:29;;;;;;;11.55;1.92;;;11.30;99.90;;;;;;6313352;22;20015;-92
2022/05/21 03:32:55;;;;;;;12.90;1.98;;;11.30;99.90;;;;;;6313893;22;20077;-92
2022/05/21 03:35:23;;;;;;;12.52;2.03;;;11.20;99.90;;;;;;6324382;22;20063;-93
2022/05/21 03:37:50;;;;;;;11.10;2.13;;;11.20;99.90;;;;;;6327969;22;20049;-93
2022/05/21 03:40:20;;;;;;;16.08;2.08;;;11.20;99.90;;;;;;6324901;22;20087;-92
2022/05/21 03:42:45;;;;;;;11.85;1.63;;;11.10;99.90;;;;;;6325058;22;20003;-93
2022/05/21 03:45:12;;;;;;;11.13;1.67;;;11.10;99.90;;;;;;6319813;22;19999;-92
2022/05/21 03:47:41;;;;;;;11.60;1.80;;;11.10;99.90;;;;;;6318534;22;20062;-92
2022/05/21 03:50:17;;;;;;;11.70;1.95;;;11.00;99.90;;;;;;6313214;22;20052;-93
2022/05/21 03:52:43;;;;;;;12.65;3.22;;;11.00;99.90;;;;;;6312715;22;19998;-92
2022/05/21 03:55:10;;;;;;;9.77;1.30;;;11.00;99.90;;;;;;6312835;22;20033;-92
2022/05/21 03:57:36;;;;;;;5.97;1.52;;;10.90;99.90;;;;;;6312689;22;20011;-91
2022/05/21 04:00:05;;;;;;;13.05;1.90;;;10.90;99.90;;;;;;6312560;22;20013;-92
2022/05/21 04:02:32;;;;;;;10.80;3.08;;;10.90;99.90;;;;;;6312611;22;20018;-93
2022/05/21 04:04:59;;;;;;;15.57;1.70;;;10.80;99.90;;;;;;6312073;22;20003;-91
2022/05/21 04:07:25;;;;;;;15.23;1.92;;;10.80;99.90;;;;;;6339992;22;20002;-92
2022/05/21 04:09:51;;;;;;;15.32;2.88;;;10.80;99.90;;;;;;6340305;22;20061;-92
2022/05/21 04:12:17;;;;;;;15.93;2.78;;;10.70;99.90;;;;;;6312783;22;20017;-92
2022/05/21 04:14:43;;;;;;;9.18;2.10;;;10.70;99.90;;;;;;6319353;22;20007;-91
2022/05/21 04:17:13;;;;;;;13.50;2.70;;;10.70;99.90;;;;;;6316177;22;20049;-93
2022/05/21 04:19:40;;;;;;;15.85;2.05;;;10.70;99.90;;;;;;6312155;22;20085;-93
2022/05/21 04:22:06;;;;;;;13.80;2.17;;;10.60;99.90;;;;;;6312066;22;20006;-93
2022/05/21 04:24:32;;;;;;;7.93;2.10;;;10.60;99.90;;;;;;6311575;22;20009;-92
2022/05/21 04:26:57;;;;;;;13.13;2.03;;;10.60;99.90;;;;;;6311913;22;20007;-92
2022/05/21 04:29:23;;;;;;;8.70;1.75;;;10.50;99.90;;;;;;6311772;22;20403;-94
2022/05/21 04:31:49;;;;;;;14.98;1.83;;;10.50;99.90;;;;;;6312100;22;20022;-94
2022/05/21 04:34:15;;;;;;;12.93;1.77;;;10.50;99.90;;;;;;6313953;22;20006;-92
2022/05/21 04:36:41;;;;;;;11.45;2.00;;;10.60;99.90;;;;;;6312976;22;20046;-94
2022/05/21 04:39:07;;;;;;;9.07;1.52;;;10.60;99.90;;;;;;6312885;22;20426;-93
2022/05/21 04:41:34;;;;;;;8.80;1.60;;;10.50;99.90;;;;;;6311879;22;20003;-94
2022/05/21 04:44:00;;;;;;;11.88;2.03;;;10.50;99.90;;;;;;6311641;22;20333;-93
2022/05/21 04:46:26;;;;;;;11.73;1.80;;;10.50;99.90;;;;;;6311772;22;20007;-93
2022/05/21 04:48:52;;;;;;;9.45;1.48;;;10.60;99.90;;;;;;6311699;22;20349;-93
2022/05/21 04:51:18;;;;;;;9.32;1.80;;;10.60;99.90;;;;;;6311873;22;20018;-93
2022/05/21 04:53:44;;;;;;;12.63;1.70;;;10.60;99.90;;;;;;6311743;22;20006;-93
2022/05/21 04:56:10;;;;;;;7.88;1.65;;;10.60;99.90;;;;;;6311703;22;20003;-92
2022/05/21 04:58:36;;;;;;;8.63;1.73;;;10.60;99.90;;;;;;6311704;22;20060;-93
2022/05/21 05:01:04;;;;;;;8.40;1.20;;;10.60;99.90;;;;;;6311529;22;20009;-96
2022/05/21 05:03:30;;;;;;;11.82;2.20;;;10.70;99.90;;;;;;6310495;22;20391;-93
2022/05/21 05:05:55;;;;;;;9.40;1.27;;;10.70;99.90;;;;;;6311369;22;20032;-91
2022/05/21 05:08:22;;;;;;;13.35;2.10;;;10.70;99.90;;;;;;6310474;22;20026;-93
2022/05/21 05:10:49;;;;;;;8.13;1.67;;;10.70;99.90;;;;;;6310791;22;20018;-94
2022/05/21 05:13:15;;;;;;;12.15;1.92;;;10.80;99.90;;;;;;6310759;22;20018;-92
2022/05/21 05:15:46;;;;;;;11.93;1.80;;;10.80;99.90;;;;;;6311266;22;20006;-94
2022/05/21 05:18:15;;;;;;;4.57;1.50;;;10.80;99.90;;;;;;6311102;22;20051;-93
2022/05/21 05:20:42;;;;;;;12.35;1.50;;;10.80;99.90;;;;;;6311357;22;20003;-93
2022/05/21 05:23:08;;;;;;;8.20;1.40;;;10.80;99.90;;;;;;6311438;22;20007;-94
2022/05/21 05:25:34;;;;;;;10.75;1.45;;;10.80;99.90;;;;;;6311643;22;20460;-92
2022/05/21 05:28:00;;;;;;;9.57;1.50;;;10.80;99.90;;;;;;6311810;22;20318;-93
2022/05/21 05:30:27;;;;;;;7.05;1.33;;;10.80;99.90;;;;;;6311533;22;20015;-94
2022/05/21 05:32:53;;;;;;;9.75;1.52;;;10.80;99.90;;;;;;6311189;22;20007;-93
2022/05/21 05:35:19;;;;;;;10.50;1.60;;;10.80;99.90;;;;;;6312253;22;20018;-94
2022/05/21 05:37:45;;;;;;;13.63;1.77;;;10.80;99.90;;;;;;6314078;22;20094;-93
2022/05/21 05:40:17;;;;;;;7.35;1.50;;;10.80;99.90;;;;;;6317256;22;20452;-93
2022/05/21 05:42:43;;;;;;;13.00;1.90;;;10.80;99.90;;;;;;6318167;22;20095;-95
2022/05/21 05:45:13;;;;;;;9.20;2.08;;;10.90;99.90;;;;;;6314757;22;20030;-94
2022/05/21 05:47:39;;;;;;;9.38;2.05;;;10.90;99.90;;;;;;6313519;22;20018;-92
2022/05/21 05:50:05;;;;;;;8.18;1.30;;;10.90;99.90;;;;;;6316521;22;20013;-91
2022/05/21 05:52:31;;;;;;;11.50;1.95;;;10.90;99.90;;;;;;6340714;22;19999;-93
2022/05/21 05:54:57;;;;;;;11.70;1.90;;;11.00;99.90;;;;;;6313225;22;20102;-92
2022/05/21 05:57:23;;;;;;;10.35;1.70;;;10.90;99.90;;;;;;6313024;22;20035;-93
2022/05/21 05:59:52;;;;;;;6.70;1.33;;;11.00;99.90;;;;;;6313970;22;20010;-93
2022/05/21 06:05:13;;;;;;;9.88;1.60;;;11.00;99.90;;;;;;6340879;22;20024;-93
2022/05/21 06:07:48;;;;;;;13.25;1.60;;;11.00;99.90;;;;;;6313431;22;20015;-93
2022/05/21 06:10:17;;;;;;;6.97;1.30;;;11.00;99.90;;;;;;6319313;22;20018;-91
2022/05/21 06:12:43;;;;;;;17.23;2.63;;;11.00;99.90;;;;;;6348711;22;20011;-93
2022/05/21 06:15:10;;;;;;;9.75;1.35;;;11.00;99.90;;;;;;6313501;22;20013;-93
2022/05/21 06:17:38;;;;;;;10.35;1.50;;;11.10;99.90;;;;;;6313291;22;20080;-93
2022/05/21 06:20:09;;;;;;;6.25;1.20;;;11.10;99.90;;;;;;6312607;22;20050;-93
2022/05/21 06:22:35;;;;;;;13.57;1.35;;;11.10;99.90;;;;;;6312819;22;19998;-93
2022/05/21 06:25:01;;;;;;;12.13;1.92;;;11.10;99.90;;;;;;6341308;22;20003;-93
2022/05/21 06:27:28;;;;;;;10.25;2.00;;;11.10;99.90;;;;;;6315915;22;20005;-94
2022/05/21 06:29:53;;;;;;;12.02;1.95;;;11.10;99.90;;;;;;6325176;22;20019;-92
2022/05/21 06:32:22;;;;;;;12.52;1.65;;;11.10;99.90;;;;;;6324699;22;20011;-92
2022/05/21 06:34:48;;;;;;;11.23;1.67;;;11.20;99.90;;;;;;6325143;22;20054;-92
2022/05/21 06:37:14;;;;;;;9.13;1.90;;;11.20;99.90;;;;;;6321810;22;20011;-93
2022/05/21 06:39:42;;;;;;;10.98;1.60;;;11.20;99.90;;;;;;6323988;22;20187;-93
2022/05/21 06:42:12;;;;;;;12.57;1.73;;;11.30;99.90;;;;;;6322362;22;20011;-93
2022/05/21 06:44:38;;;;;;;12.25;2.42;;;11.30;99.90;;;;;;6321210;22;20066;-93
2022/05/21 06:47:04;;;;;;;10.00;1.30;;;11.30;99.90;;;;;;6315677;22;20010;-94
2022/05/21 06:49:33;;;;;;;8.63;1.55;;;11.40;99.90;;;;;;6313627;22;20002;-93
2022/05/21 06:51:59;;;;;;;12.05;1.70;;;11.40;99.90;;;;;;6312882;22;20015;-93
2022/05/21 06:54:26;;;;;;;7.95;1.50;;;11.50;99.90;;;;;;6313125;22;20010;-93
2022/05/21 06:56:53;;;;;;;11.63;1.40;;;11.60;99.90;;;;;;6313816;22;20070;-95
2022/05/21 06:59:19;;;;;;;11.13;2.08;;;11.60;99.90;;;;;;6317220;22;20007;-96
2022/05/21 07:01:44;;;;;;;10.75;1.60;;;11.60;99.90;;;;;;6314637;22;20370;-95
2022/05/21 07:04:13;;;;;;;11.27;2.00;;;11.60;99.90;;;;;;6313843;22;20290;-94
2022/05/21 07:09:23;;;;;;;11.68;1.52;;;11.70;99.90;;;;;;6342811;22;20065;-92
2022/05/21 07:11:51;;;;;;;7.97;1.23;;;11.80;99.90;;;;;;6315979;22;20022;-94
2022/05/21 07:14:17;;;;;;;15.00;1.80;;;11.80;99.90;;;;;;6314970;22;20014;-93
2022/05/21 07:16:44;;;;;;;13.38;2.50;;;11.80;99.90;;;;;;6317382;22;20003;-93
2022/05/21 07:19:12;;;;;;;9.95;1.77;;;11.90;99.90;;;;;;6320319;22;20058;-94
2022/05/21 07:21:38;;;;;;;6.60;1.48;;;11.90;99.90;;;;;;6335374;22;20006;-95
2022/05/21 07:24:04;;;;;;;15.25;3.05;;;12.00;99.90;;;;;;6329515;22;20435;-94
2022/05/21 07:26:30;;;;;;;11.88;1.52;;;12.10;99.90;;;;;;6325504;22;20058;-93
2022/05/21 07:28:58;;;;;;;16.30;3.53;;;12.10;99.90;;;;;;6321141;22;20429;-93
2022/05/21 07:31:23;;;;;;;7.90;1.70;;;12.20;99.90;;;;;;6321481;22;20075;-93
2022/05/21 07:33:49;;;;;;;13.68;1.50;;;12.20;99.90;;;;;;6319515;22;20003;-94
2022/05/21 07:36:15;;;;;;;10.48;1.55;;;12.20;99.90;;;;;;6319315;22;20022;-94
2022/05/21 07:38:40;;;;;;;8.15;1.85;;;12.30;99.90;;;;;;6316569;22;20006;-94
2022/05/21 07:41:07;;;;;;;12.48;1.77;;;12.30;99.90;;;;;;6324619;22;20010;-93
2022/05/21 07:43:33;;;;;;;13.00;2.78;;;12.40;99.90;;;;;;6321510;22;20076;-94
2022/05/21 07:46:03;;;;;;;11.15;1.60;;;12.40;99.90;;;;;;6325203;22;20003;-94
2022/05/21 07:48:29;;;;;;;9.23;1.80;;;12.50;99.90;;;;;;6299910;22;20011;-93
2022/05/21 07:51:03;;;;;;;11.10;2.25;;;12.50;99.90;;;;;;6318367;22;20015;-91
2022/05/21 07:53:39;;;;;;;11.82;1.60;;;12.50;99.90;;;;;;6321644;22;20480;-92
2022/05/21 07:56:05;;;;;;;11.00;1.95;;;12.50;99.90;;;;;;6314403;22;20422;-92
2022/05/21 07:58:31;;;;;;;14.00;1.67;;;12.50;99.90;;;;;;6312667;22;20314;-94
2022/05/21 08:00:58;;;;;;;8.68;1.40;;;12.50;99.90;;;;;;6312397;22;20010;-89
2022/05/21 08:03:25;;;;;;;9.45;1.85;;;12.50;99.90;;;;;;6312991;22;20003;-92
2022/05/21 08:05:51;;;;;;;11.15;1.75;;;12.40;99.90;;;;;;6312516;22;20007;-90
2022/05/21 08:08:17;;;;;;;13.48;1.65;;;12.40;99.90;;;;;;6312476;22;20007;-94
2022/05/21 08:10:45;;;;;;;10.13;1.50;;;12.40;99.90;;;;;;6314344;22;20514;-93
2022/05/21 08:13:12;;;;;;;15.55;1.65;;;12.40;99.90;;;;;;6314852;22;20002;-94
2022/05/21 08:15:39;;;;;;;8.50;1.70;;;12.40;99.90;;;;;;6314304;22;20052;-92
2022/05/21 08:18:05;;;;;;;12.48;2.25;;;12.40;99.90;;;;;;6313427;22;20006;-93
2022/05/21 08:20:32;;;;;;;10.82;1.67;;;12.40;99.90;;;;;;6314226;22;20077;-94
2022/05/21 08:28:27;;;;;;;14.98;2.10;;;12.40;99.90;;;;;;6340143;22;20353;-92
2022/05/21 08:30:52;;;;;;;11.52;2.00;;;12.40;99.90;;;;;;6310745;22;20015;-94
2022/05/21 08:33:19;;;;;;;14.90;2.20;;;12.40;99.90;;;;;;6310734;22;20091;-94
2022/05/21 08:35:45;;;;;;;9.70;1.90;;;12.40;99.90;;;;;;6311764;22;20442;-93
2022/05/21 08:38:12;;;;;;;14.55;2.47;;;12.40;99.90;;;;;;6310102;22;20007;-93
2022/05/21 08:40:50;;;;;;;10.10;1.73;;;12.40;99.90;;;;;;6310435;22;20006;-93
2022/05/21 08:43:27;;;;;;;9.90;1.85;;;12.40;99.90;;;;;;6312681;22;19999;-93
2022/05/21 08:46:23;;;;;;;8.43;1.60;;;12.40;99.90;;;;;;6313533;22;20003;-93
2022/05/21 08:49:15;;;;;;;6.28;1.17;;;12.40;99.90;;;;;;6310087;22;20460;-94
2022/05/21 08:51:46;;;;;;;10.45;1.60;;;12.40;99.90;;;;;;6275099;22;20015;-92
2022/05/21 08:54:23;;;;;;;11.65;1.83;;;12.50;99.90;;;;;;6311800;22;20010;-93
2022/05/21 08:56:50;;;;;;;11.15;2.08;;;12.50;99.90;;;;;;6311899;22;20006;-91
2022/05/21 08:59:21;;;;;;;10.60;1.63;;;12.50;99.90;;;;;;6325182;22;20003;-93
2022/05/21 09:01:47;;;;;;;7.60;1.80;;;12.50;99.90;;;;;;6328913;22;20018;-91
2022/05/21 09:04:14;;;;;;;14.57;2.20;;;12.60;99.90;;;;;;6318960;22;20052;-93
2022/05/21 09:06:52;;;;;;;7.78;1.67;;;12.60;99.90;;;;;;6312259;22;20007;-93
2022/05/21 09:09:26;;;;;;;7.60;1.42;;;12.70;99.90;;;;;;6312116;22;20010;-93
2022/05/21 09:12:16;;;;;;;17.48;1.88;;;12.70;99.90;;;;;;6312436;22;20041;-91
2022/05/21 09:14:45;;;;;;;13.37;1.53;;;12.80;99.90;;;;;;6312028;22;20003;-92
2022/05/21 09:17:16;;;;;;;8.27;1.60;;;12.80;99.90;;;;;;6312503;22;20297;-92
2022/05/21 09:19:50;;;;;;;13.80;2.40;;;12.80;99.90;;;;;;6312164;22;20007;-92
2022/05/21 09:22:18;;;;;;;7.97;1.50;;;12.80;99.90;;;;;;6310621;22;20003;-91
2022/05/21 09:24:50;;;;;;;8.00;1.25;;;12.80;99.90;;;;;;6312202;22;20014;-92
2022/05/21 09:27:33;;;;;;;10.20;1.45;;;12.80;99.90;;;;;;6315869;22;20078;-94
2022/05/21 09:30:26;;;;;;;9.35;1.65;;;12.80;99.90;;;;;;6318988;22;20006;-92
2022/05/21 09:33:00;;;;;;;7.82;1.52;;;12.80;99.90;;;;;;6316716;22;20033;-91
2022/05/21 09:35:31;;;;;;;11.15;1.85;;;12.80;99.90;;;;;;6319323;22;20469;-92
2022/05/21 09:38:21;;;;;;;10.30;2.03;;;12.80;99.90;;;;;;6317238;22;20003;-91
2022/05/21 09:40:47;;;;;;;12.02;1.45;;;12.80;99.90;;;;;;6317483;22;20051;-92
2022/05/21 09:46:27;;;;;;;6.75;1.58;;;12.90;99.90;;;;;;6344401;22;20088;-93
2022/05/21 09:49:11;;;;;;;9.18;1.45;;;12.90;99.90;;;;;;6321452;22;20003;-93
2022/05/21 09:51:38;;;;;;;7.35;1.60;;;12.90;99.90;;;;;;6319405;22;20017;-93
2022/05/21 09:54:29;;;;;;;13.25;1.33;;;12.90;99.90;;;;;;6316923;22;19999;-93
2022/05/21 09:56:57;;;;;;;9.87;2.30;;;12.90;99.90;;;;;;6317142;22;20333;-91
2022/05/21 09:59:27;;;;;;;8.48;1.80;;;12.90;99.90;;;;;;6313668;22;20233;-91
2022/05/21 10:01:57;;;;;;;13.07;1.75;;;12.90;99.90;;;;;;6315207;22;20006;-91
2022/05/21 10:04:23;;;;;;;9.20;1.80;;;13.00;99.90;;;;;;6314108;22;19999;-91
2022/05/21 10:07:00;;;;;;;9.18;1.58;;;13.10;99.90;;;;;;6328808;22;20079;-92
2022/05/21 10:12:32;;;;;;;11.38;1.88;;;13.20;99.90;;;;;;6345363;22;20026;-92
2022/05/21 10:15:04;;;;;;;8.00;2.00;;;13.30;99.90;;;;;;6317492;22;20022;-93
2022/05/21 10:17:42;;;;;;;11.85;2.38;;;13.30;99.90;;;;;;6316363;22;20014;-91
2022/05/21 10:20:20;;;;;;;10.60;2.22;;;13.40;99.90;;;;;;6315928;22;20013;-91
2022/05/21 10:23:09;;;;;;;12.40;2.17;;;13.50;99.90;;;;;;6313342;22;20453;-91
2022/05/21 10:26:07;;;;;;;6.45;1.25;;;13.70;99.90;;;;;;6315245;22;20418;-93
2022/05/21 10:28:36;;;;;;;8.18;1.77;;;13.90;99.90;;;;;;6314563;22;20014;-92
2022/05/21 10:31:14;;;;;;;8.32;1.17;;;14.10;99.90;;;;;;6313052;22;20015;-94
2022/05/21 10:33:49;;;;;;;4.57;1.38;;;14.30;99.90;;;;;;6332815;22;19998;-92
2022/05/21 10:36:24;;;;;;;11.00;1.60;;;14.50;99.90;;;;;;6317189;22;20022;-93
2022/05/21 10:39:10;;;;;;;13.55;1.60;;;14.80;99.90;;;;;;6317089;22;20011;-95
2022/05/21 10:41:39;;;;;;;5.68;1.27;;;15.10;99.90;;;;;;6315974;22;20013;-93
2022/05/21 10:44:33;;;;;;;9.75;1.30;;;15.50;99.90;;;;;;6317762;22;20003;-93
2022/05/21 10:47:04;;;;;;;7.68;1.20;;;15.80;99.60;;;;;;6318236;22;20449;-93
2022/05/21 10:50:08;;;;;;;9.50;1.50;;;16.00;97.60;;;;;;6315850;22;20017;-93
2022/05/21 10:52:43;;;;;;;8.60;1.88;;;16.20;96.50;;;;;;6313840;22;20006;-93
2022/05/21 10:55:20;;;;;;;9.10;1.55;;;16.30;95.70;;;;;;6318130;22;20006;-94
2022/05/21 10:58:14;;;;;;;10.68;2.00;;;16.50;95.00;;;;;;6346438;22;20078;-94
2022/05/21 11:01:07;;;;;;;7.47;1.40;;;16.50;94.10;;;;;;6347110;22;20007;-94
2022/05/21 11:03:43;;;;;;;6.43;1.40;;;16.40;93.20;;;;;;6349030;22;20009;-93
2022/05/21 11:06:27;;;;;;;8.05;1.45;;;16.40;93.20;;;;;;6327738;22;20010;-92
2022/05/21 11:09:07;;;;;;;6.47;1.33;;;16.30;93.30;;;;;;6320975;22;20022;-93
2022/05/21 11:11:45;;;;;;;8.43;1.50;;;16.20;93.50;;;;;;6324742;22;20014;-93
2022/05/21 11:14:46;;;;;;;6.57;1.65;;;16.10;93.50;;;;;;6322830;22;20010;-93
2022/05/21 11:17:24;;;;;;;10.40;2.38;;;15.90;93.50;;;;;;6322178;22;20011;-91
2022/05/21 11:19:53;;;;;;;8.50;1.60;;;15.80;93.80;;;;;;6327079;22;19994;-92
2022/05/21 11:22:52;;;;;;;10.52;1.77;;;15.80;94.20;;;;;;6321686;22;20117;-94
2022/05/21 11:25:21;;;;;;;17.83;3.97;;;16.00;94.40;;;;;;6297626;22;20009;-93
2022/05/21 11:28:09;;;;;;;8.48;1.88;;;16.40;94.50;;;;;;6318293;22;20075;-94
2022/05/21 11:30:35;;;;;;;9.25;1.92;;;16.70;94.20;;;;;;6326591;22;20035;-93
2022/05/21 11:38:46;;;;;;;11.63;1.90;;;17.00;91.60;;;;;;6352463;22;20017;-94
2022/05/21 11:41:42;;;;;;;6.18;1.60;;;17.10;91.20;;;;;;6326357;22;20011;-92
2022/05/21 11:47:13;;;;;;;11.38;2.30;;;17.00;90.70;;;;;;6358672;22;20006;-93
2022/05/21 11:49:45;;;;;;;10.10;1.92;;;16.90;91.00;;;;;;6327012;22;20002;-93
2022/05/21 11:52:26;;;;;;;8.82;2.00;;;16.90;91.00;;;;;;6330411;22;20058;-92
2022/05/21 11:54:54;;;;;;;8.10;1.50;;;16.90;91.00;;;;;;6333512;22;20003;-92
2022/05/21 11:57:37;;;;;;;9.75;1.63;;;16.90;90.80;;;;;;6324423;22;20002;-93
2022/05/21 12:00:06;;;;;;;8.25;1.40;;;17.00;90.60;;;;;;6323545;22;20010;-93
2022/05/21 12:02:40;;;;;;;10.77;1.40;;;17.00;89.80;;;;;;6319701;22;20037;-93
2022/05/21 12:05:11;;;;;;;5.95;1.63;;;17.00;88.50;;;;;;6321567;22;20023;-92
2022/05/21 12:07:41;;;;;;;10.80;1.50;;;17.00;86.20;;;;;;6333621;22;20010;-94
2022/05/21 12:10:14;;;;;;;11.80;1.55;;;17.00;86.00;;;;;;6324717;22;20057;-94
2022/05/21 12:13:01;;;;;;;6.22;1.27;;;17.00;86.20;;;;;;6323116;22;20003;-92
2022/05/21 12:15:49;;;;;;;7.50;1.70;;;17.10;86.20;;;;;;6321751;22;20014;-94
2022/05/21 12:18:41;;;;;;;7.38;1.83;;;17.20;86.10;;;;;;6315887;22;20002;-92
2022/05/21 12:21:35;;;;;;;5.65;1.33;;;17.40;86.10;;;;;;6219289;23;20009;-93
2022/05/21 12:24:36;;;;;;;7.55;1.60;;;17.50;85.20;;;;;;6202880;23;20004;-93
2022/05/21 12:27:11;;;;;;;;;;;17.60;83.30;;;;;;6206542;23;20014;-94
2022/05/21 12:29:46;;;;;;;5.13;1.02;;;17.60;82.80;;;;;;6197396;23;19904;-90
2022/05/21 12:32:23;;;;;;;6.78;2.15;;;17.60;82.80;;;;;;6248995;23;20057;-94
2022/05/21 12:35:07;;;;;;;10.93;2.08;;;17.80;82.80;;;;;;6220102;23;20007;-94
2022/05/21 12:37:41;;;;;;;5.55;1.40;;;17.90;82.30;;;;;;6219644;23;20004;-95
2022/05/21 12:40:17;;;;;;;16.80;2.13;;;18.10;81.00;;;;;;6219282;23;20008;-93
2022/05/21 12:42:57;;;;;;;5.55;1.27;;;18.20;79.50;;;;;;6218727;23;20008;-94
2022/05/21 12:45:37;;;;;;;5.55;1.50;;;18.40;78.70;;;;;;6214854;23;20008;-93
2022/05/21 12:48:13;;;;;;;7.60;2.03;;;18.50;76.90;;;;;;6217274;23;20004;-91
2022/05/21 12:50:51;;;;;;;8.90;1.40;;;18.70;75.10;;;;;;6242227;23;20483;-94
2022/05/21 12:53:34;;;;;;;11.55;1.75;;;18.70;73.40;;;;;;6217073;23;20451;-93
2022/05/21 12:56:24;;;;;;;6.68;1.42;;;18.80;73.10;;;;;;6216448;23;20083;-92
2022/05/21 12:59:10;;;;;;;7.57;2.00;;;19.00;72.70;;;;;;6268269;22;20003;-94
2022/05/21 13:01:46;;;;;;;11.13;1.55;;;19.20;71.50;;;;;;6279573;22;20007;-93
2022/05/21 13:04:29;;;;;;;9.35;1.05;;;19.30;71.30;;;;;;6279348;22;20094;-92
2022/05/21 13:07:12;;;;;;;5.35;1.63;;;19.70;71.50;;;;;;6279551;22;20007;-93
2022/05/21 13:09:57;;;;;;;10.15;1.35;;;20.00;70.60;;;;;;6278399;22;20509;-93
2022/05/21 13:12:24;;;;;;;6.45;1.30;;;20.00;70.20;;;;;;6278712;22;20015;-92
2022/05/21 13:14:52;;;;;;;7.43;1.25;;;20.00;70.30;;;;;;6282789;22;20012;-93
2022/05/21 13:17:55;;;;;;;4.68;1.20;;;20.00;70.30;;;;;;6279278;22;20461;-92
2022/05/21 13:20:51;;;;;;;7.07;1.33;;;19.90;68.60;;;;;;6185738;23;20009;-93
2022/05/21 13:23:51;;;;;;;6.93;1.58;;;19.60;68.60;;;;;;6186168;23;20000;-92
2022/05/21 13:26:27;;;;;;;6.95;1.35;;;19.50;69.00;;;;;;6186377;23;20782;-92
2022/05/21 13:29:18;;;;;;;13.50;1.95;;;19.40;68.60;;;;;;6185928;23;20008;-92
2022/05/21 13:31:45;;;;;;;9.02;1.08;;;19.30;67.90;;;;;;6238220;23;20391;-93
2022/05/21 13:34:24;;;;;;;6.95;1.45;;;19.40;67.20;;;;;;6215041;23;20304;-92